<?xml version="1.0" encoding="UTF-8"?>
 <gpx
 xmlns="http://www.topografix.com/GPX/1/1"
 version="1.1"
 creator="Wikipedia"
 xmlns:xsi="http://www.w3.org/2001/XMLSchema-instance"
 xsi:schemaLocation="http://www.topografix.com/GPX/1/1 http://www.topografix.com/GPX/1/1/gpx.xsd">
	<time>2026-09-05T09:21:01Z</time>
	<metadata>
 		<name>gps</name>
 	</metadata>
	<trk>
		<name>exercise</name>
		<trkseg>
			<trkpt lat="54.944294686" lon="82.880526671">
				<time>2026-09-05T09:22:08Z</time>
				<ele>191.08</ele>
			</trkpt>
			<trkpt lat="54.944294686" lon="82.880526671">
				<time>2026-09-05T09:22:13Z</time>
				<ele>191.08</ele>
			</trkpt>
			<trkpt lat="54.944294686" lon="82.880526671">
				<time>2026-09-05T09:22:18Z</time>
				<ele>191.08</ele>
			</trkpt>
			<trkpt lat="54.944294686" lon="82.880526671">
				<time>2026-09-05T09:22:23Z</time>
				<ele>191.08</ele>
			</trkpt>
			<trkpt lat="54.944294686" lon="82.880526671">
				<time>2026-09-05T09:22:28Z</time>
				<ele>191.08</ele>
			</trkpt>
			<trkpt lat="54.944294686" lon="82.880526671">
				<time>2026-09-05T09:22:33Z</time>
				<ele>191.08</ele>
			</trkpt>
			<trkpt lat="54.944294686" lon="82.880526671">
				<time>2026-09-05T09:22:38Z</time>
				<ele>191.08</ele>
			</trkpt>
			<trkpt lat="54.944294686" lon="82.880526671">
				<time>2026-09-05T09:22:43Z</time>
				<ele>191.08</ele>
			</trkpt>
			<trkpt lat="54.944294686" lon="82.880526671">
				<time>2026-09-05T09:22:48Z</time>
				<ele>191.08</ele>
			</trkpt>
			<trkpt lat="54.944294686" lon="82.880526671">
				<time>2026-09-05T09:22:53Z</time>
				<ele>191.08</ele>
			</trkpt>
			<trkpt lat="54.944294686" lon="82.880526671">
				<time>2026-09-05T09:22:58Z</time>
				<ele>191.08</ele>
			</trkpt>
			<trkpt lat="54.944294686" lon="82.880526671">
				<time>2026-09-05T09:23:03Z</time>
				<ele>191.08</ele>
			</trkpt>
			<trkpt lat="54.944294686" lon="82.880526671">
				<time>2026-09-05T09:23:08Z</time>
				<ele>191.08</ele>
			</trkpt>
			<trkpt lat="54.944322254" lon="82.880510626">
				<time>2026-09-05T09:23:17Z</time>
				<ele>194.888</ele>
			</trkpt>
			<trkpt lat="54.944322254" lon="82.880510626">
				<time>2026-09-05T09:23:22Z</time>
				<ele>194.888</ele>
			</trkpt>
			<trkpt lat="54.944322254" lon="82.880510626">
				<time>2026-09-05T09:23:27Z</time>
				<ele>194.888</ele>
			</trkpt>
			<trkpt lat="54.944322254" lon="82.880510626">
				<time>2026-09-05T09:23:32Z</time>
				<ele>194.888</ele>
			</trkpt>
			<trkpt lat="54.944322254" lon="82.880510626">
				<time>2026-09-05T09:23:37Z</time>
				<ele>194.888</ele>
			</trkpt>
			<trkpt lat="54.944322254" lon="82.880510626">
				<time>2026-09-05T09:23:42Z</time>
				<ele>194.888</ele>
			</trkpt>
			<trkpt lat="54.944322254" lon="82.880510626">
				<time>2026-09-05T09:23:47Z</time>
				<ele>194.888</ele>
			</trkpt>
			<trkpt lat="54.944322254" lon="82.880510626">
				<time>2026-09-05T09:23:52Z</time>
				<ele>194.888</ele>
			</trkpt>
			<trkpt lat="54.944322254" lon="82.880510626">
				<time>2026-09-05T09:23:57Z</time>
				<ele>194.888</ele>
			</trkpt>
			<trkpt lat="54.944322254" lon="82.880510626">
				<time>2026-09-05T09:24:02Z</time>
				<ele>194.888</ele>
			</trkpt>
			<trkpt lat="54.944322254" lon="82.880510626">
				<time>2026-09-05T09:24:07Z</time>
				<ele>194.888</ele>
			</trkpt>
			<trkpt lat="54.944322254" lon="82.880510626">
				<time>2026-09-05T09:24:12Z</time>
				<ele>194.888</ele>
			</trkpt>
			<trkpt lat="54.944322254" lon="82.880510626">
				<time>2026-09-05T09:24:17Z</time>
				<ele>194.888</ele>
			</trkpt>
			<trkpt lat="54.943996274" lon="82.880947971">
				<time>2026-09-05T09:24:24Z</time>
				<ele>79.964</ele>
			</trkpt>
			<trkpt lat="54.943996274" lon="82.880947971">
				<time>2026-09-05T09:24:29Z</time>
				<ele>79.964</ele>
			</trkpt>
			<trkpt lat="54.943996274" lon="82.880947971">
				<time>2026-09-05T09:24:34Z</time>
				<ele>79.964</ele>
			</trkpt>
			<trkpt lat="54.943996274" lon="82.880947971">
				<time>2026-09-05T09:24:39Z</time>
				<ele>79.964</ele>
			</trkpt>
			<trkpt lat="54.943996274" lon="82.880947971">
				<time>2026-09-05T09:24:44Z</time>
				<ele>79.964</ele>
			</trkpt>
			<trkpt lat="54.943996274" lon="82.880947971">
				<time>2026-09-05T09:24:49Z</time>
				<ele>79.964</ele>
			</trkpt>
			<trkpt lat="54.943996274" lon="82.880947971">
				<time>2026-09-05T09:24:54Z</time>
				<ele>79.964</ele>
			</trkpt>
			<trkpt lat="54.943996274" lon="82.880947971">
				<time>2026-09-05T09:24:59Z</time>
				<ele>79.964</ele>
			</trkpt>
			<trkpt lat="54.943996274" lon="82.880947971">
				<time>2026-09-05T09:25:04Z</time>
				<ele>79.964</ele>
			</trkpt>
			<trkpt lat="54.943996274" lon="82.880947971">
				<time>2026-09-05T09:25:09Z</time>
				<ele>79.964</ele>
			</trkpt>
			<trkpt lat="54.943996274" lon="82.880947971">
				<time>2026-09-05T09:25:14Z</time>
				<ele>79.964</ele>
			</trkpt>
			<trkpt lat="54.943996274" lon="82.880947971">
				<time>2026-09-05T09:25:19Z</time>
				<ele>79.964</ele>
			</trkpt>
			<trkpt lat="54.943996274" lon="82.880947971">
				<time>2026-09-05T09:25:24Z</time>
				<ele>79.964</ele>
			</trkpt>
			<trkpt lat="54.944138099" lon="82.88068584">
				<time>2026-09-05T09:25:31Z</time>
				<ele>130.015</ele>
			</trkpt>
			<trkpt lat="54.944138099" lon="82.88068584">
				<time>2026-09-05T09:25:36Z</time>
				<ele>130.015</ele>
			</trkpt>
			<trkpt lat="54.944138099" lon="82.88068584">
				<time>2026-09-05T09:25:41Z</time>
				<ele>130.015</ele>
			</trkpt>
			<trkpt lat="54.944138099" lon="82.88068584">
				<time>2026-09-05T09:25:46Z</time>
				<ele>130.015</ele>
			</trkpt>
			<trkpt lat="54.944138099" lon="82.88068584">
				<time>2026-09-05T09:25:51Z</time>
				<ele>130.015</ele>
			</trkpt>
			<trkpt lat="54.944138099" lon="82.88068584">
				<time>2026-09-05T09:25:56Z</time>
				<ele>130.015</ele>
			</trkpt>
			<trkpt lat="54.944138099" lon="82.88068584">
				<time>2026-09-05T09:26:01Z</time>
				<ele>130.015</ele>
			</trkpt>
			<trkpt lat="54.944138099" lon="82.88068584">
				<time>2026-09-05T09:26:06Z</time>
				<ele>130.015</ele>
			</trkpt>
			<trkpt lat="54.944138099" lon="82.88068584">
				<time>2026-09-05T09:26:11Z</time>
				<ele>130.015</ele>
			</trkpt>
			<trkpt lat="54.944138099" lon="82.88068584">
				<time>2026-09-05T09:26:16Z</time>
				<ele>130.015</ele>
			</trkpt>
			<trkpt lat="54.944138099" lon="82.88068584">
				<time>2026-09-05T09:26:21Z</time>
				<ele>130.015</ele>
			</trkpt>
			<trkpt lat="54.944138099" lon="82.88068584">
				<time>2026-09-05T09:26:26Z</time>
				<ele>130.015</ele>
			</trkpt>
			<trkpt lat="54.944138099" lon="82.88068584">
				<time>2026-09-05T09:26:31Z</time>
				<ele>130.015</ele>
			</trkpt>
			<trkpt lat="54.944229784" lon="82.881827688">
				<time>2026-09-05T09:26:38Z</time>
				<ele>128.265</ele>
			</trkpt>
			<trkpt lat="54.944229784" lon="82.881827688">
				<time>2026-09-05T09:26:43Z</time>
				<ele>128.265</ele>
			</trkpt>
			<trkpt lat="54.944229784" lon="82.881827688">
				<time>2026-09-05T09:26:48Z</time>
				<ele>128.265</ele>
			</trkpt>
			<trkpt lat="54.944229784" lon="82.881827688">
				<time>2026-09-05T09:26:53Z</time>
				<ele>128.265</ele>
			</trkpt>
			<trkpt lat="54.944229784" lon="82.881827688">
				<time>2026-09-05T09:26:58Z</time>
				<ele>128.265</ele>
			</trkpt>
			<trkpt lat="54.944229784" lon="82.881827688">
				<time>2026-09-05T09:27:03Z</time>
				<ele>128.265</ele>
			</trkpt>
			<trkpt lat="54.944229784" lon="82.881827688">
				<time>2026-09-05T09:27:08Z</time>
				<ele>128.265</ele>
			</trkpt>
			<trkpt lat="54.944229784" lon="82.881827688">
				<time>2026-09-05T09:27:13Z</time>
				<ele>128.265</ele>
			</trkpt>
			<trkpt lat="54.944229784" lon="82.881827688">
				<time>2026-09-05T09:27:18Z</time>
				<ele>128.265</ele>
			</trkpt>
			<trkpt lat="54.944229784" lon="82.881827688">
				<time>2026-09-05T09:27:23Z</time>
				<ele>128.265</ele>
			</trkpt>
			<trkpt lat="54.944229784" lon="82.881827688">
				<time>2026-09-05T09:27:28Z</time>
				<ele>128.265</ele>
			</trkpt>
			<trkpt lat="54.944229784" lon="82.881827688">
				<time>2026-09-05T09:27:33Z</time>
				<ele>128.265</ele>
			</trkpt>
			<trkpt lat="54.944229784" lon="82.881827688">
				<time>2026-09-05T09:27:38Z</time>
				<ele>128.265</ele>
			</trkpt>
			<trkpt lat="54.943333496" lon="82.88269368">
				<time>2026-09-05T09:27:45Z</time>
				<ele>125.714</ele>
			</trkpt>
			<trkpt lat="54.943333496" lon="82.88269368">
				<time>2026-09-05T09:27:50Z</time>
				<ele>125.714</ele>
			</trkpt>
			<trkpt lat="54.943333496" lon="82.88269368">
				<time>2026-09-05T09:27:55Z</time>
				<ele>125.714</ele>
			</trkpt>
			<trkpt lat="54.943333496" lon="82.88269368">
				<time>2026-09-05T09:28:00Z</time>
				<ele>125.714</ele>
			</trkpt>
			<trkpt lat="54.943333496" lon="82.88269368">
				<time>2026-09-05T09:28:05Z</time>
				<ele>125.714</ele>
			</trkpt>
			<trkpt lat="54.943333496" lon="82.88269368">
				<time>2026-09-05T09:28:10Z</time>
				<ele>125.714</ele>
			</trkpt>
			<trkpt lat="54.943333496" lon="82.88269368">
				<time>2026-09-05T09:28:15Z</time>
				<ele>125.714</ele>
			</trkpt>
			<trkpt lat="54.943333496" lon="82.88269368">
				<time>2026-09-05T09:28:20Z</time>
				<ele>125.714</ele>
			</trkpt>
			<trkpt lat="54.943333496" lon="82.88269368">
				<time>2026-09-05T09:28:25Z</time>
				<ele>125.714</ele>
			</trkpt>
			<trkpt lat="54.943333496" lon="82.88269368">
				<time>2026-09-05T09:28:30Z</time>
				<ele>125.714</ele>
			</trkpt>
			<trkpt lat="54.943333496" lon="82.88269368">
				<time>2026-09-05T09:28:35Z</time>
				<ele>125.714</ele>
			</trkpt>
			<trkpt lat="54.943333496" lon="82.88269368">
				<time>2026-09-05T09:28:40Z</time>
				<ele>125.714</ele>
			</trkpt>
			<trkpt lat="54.943333496" lon="82.88269368">
				<time>2026-09-05T09:28:45Z</time>
				<ele>125.714</ele>
			</trkpt>
			<trkpt lat="54.942942699" lon="82.884434824">
				<time>2026-09-05T09:28:54Z</time>
				<ele>129.94</ele>
			</trkpt>
			<trkpt lat="54.942942699" lon="82.884434824">
				<time>2026-09-05T09:28:59Z</time>
				<ele>129.94</ele>
			</trkpt>
			<trkpt lat="54.942942699" lon="82.884434824">
				<time>2026-09-05T09:29:04Z</time>
				<ele>129.94</ele>
			</trkpt>
			<trkpt lat="54.942942699" lon="82.884434824">
				<time>2026-09-05T09:29:09Z</time>
				<ele>129.94</ele>
			</trkpt>
			<trkpt lat="54.942942699" lon="82.884434824">
				<time>2026-09-05T09:29:14Z</time>
				<ele>129.94</ele>
			</trkpt>
			<trkpt lat="54.942942699" lon="82.884434824">
				<time>2026-09-05T09:29:19Z</time>
				<ele>129.94</ele>
			</trkpt>
			<trkpt lat="54.942942699" lon="82.884434824">
				<time>2026-09-05T09:29:24Z</time>
				<ele>129.94</ele>
			</trkpt>
			<trkpt lat="54.942942699" lon="82.884434824">
				<time>2026-09-05T09:29:29Z</time>
				<ele>129.94</ele>
			</trkpt>
			<trkpt lat="54.942942699" lon="82.884434824">
				<time>2026-09-05T09:29:34Z</time>
				<ele>129.94</ele>
			</trkpt>
			<trkpt lat="54.942942699" lon="82.884434824">
				<time>2026-09-05T09:29:39Z</time>
				<ele>129.94</ele>
			</trkpt>
			<trkpt lat="54.942942699" lon="82.884434824">
				<time>2026-09-05T09:29:44Z</time>
				<ele>129.94</ele>
			</trkpt>
			<trkpt lat="54.942942699" lon="82.884434824">
				<time>2026-09-05T09:29:49Z</time>
				<ele>129.94</ele>
			</trkpt>
			<trkpt lat="54.942942699" lon="82.884434824">
				<time>2026-09-05T09:29:54Z</time>
				<ele>129.94</ele>
			</trkpt>
			<trkpt lat="54.943241871" lon="82.88645275">
				<time>2026-09-05T09:30:03Z</time>
				<ele>128.828</ele>
			</trkpt>
			<trkpt lat="54.943241871" lon="82.88645275">
				<time>2026-09-05T09:30:08Z</time>
				<ele>128.828</ele>
			</trkpt>
			<trkpt lat="54.943241871" lon="82.88645275">
				<time>2026-09-05T09:30:13Z</time>
				<ele>128.828</ele>
			</trkpt>
			<trkpt lat="54.943241871" lon="82.88645275">
				<time>2026-09-05T09:30:18Z</time>
				<ele>128.828</ele>
			</trkpt>
			<trkpt lat="54.943241871" lon="82.88645275">
				<time>2026-09-05T09:30:23Z</time>
				<ele>128.828</ele>
			</trkpt>
			<trkpt lat="54.943241871" lon="82.88645275">
				<time>2026-09-05T09:30:28Z</time>
				<ele>128.828</ele>
			</trkpt>
			<trkpt lat="54.943241871" lon="82.88645275">
				<time>2026-09-05T09:30:33Z</time>
				<ele>128.828</ele>
			</trkpt>
			<trkpt lat="54.943241871" lon="82.88645275">
				<time>2026-09-05T09:30:38Z</time>
				<ele>128.828</ele>
			</trkpt>
			<trkpt lat="54.943241871" lon="82.88645275">
				<time>2026-09-05T09:30:43Z</time>
				<ele>128.828</ele>
			</trkpt>
			<trkpt lat="54.943241871" lon="82.88645275">
				<time>2026-09-05T09:30:48Z</time>
				<ele>128.828</ele>
			</trkpt>
			<trkpt lat="54.943241871" lon="82.88645275">
				<time>2026-09-05T09:30:53Z</time>
				<ele>128.828</ele>
			</trkpt>
			<trkpt lat="54.943241871" lon="82.88645275">
				<time>2026-09-05T09:30:58Z</time>
				<ele>128.828</ele>
			</trkpt>
			<trkpt lat="54.943241871" lon="82.88645275">
				<time>2026-09-05T09:31:03Z</time>
				<ele>128.828</ele>
			</trkpt>
			<trkpt lat="54.945277324" lon="82.886770207">
				<time>2026-09-05T09:31:10Z</time>
				<ele>135.533</ele>
			</trkpt>
			<trkpt lat="54.945277324" lon="82.886770207">
				<time>2026-09-05T09:31:15Z</time>
				<ele>135.533</ele>
			</trkpt>
			<trkpt lat="54.945277324" lon="82.886770207">
				<time>2026-09-05T09:31:20Z</time>
				<ele>135.533</ele>
			</trkpt>
			<trkpt lat="54.945277324" lon="82.886770207">
				<time>2026-09-05T09:31:25Z</time>
				<ele>135.533</ele>
			</trkpt>
			<trkpt lat="54.945277324" lon="82.886770207">
				<time>2026-09-05T09:31:30Z</time>
				<ele>135.533</ele>
			</trkpt>
			<trkpt lat="54.945277324" lon="82.886770207">
				<time>2026-09-05T09:31:35Z</time>
				<ele>135.533</ele>
			</trkpt>
			<trkpt lat="54.945277324" lon="82.886770207">
				<time>2026-09-05T09:31:40Z</time>
				<ele>135.533</ele>
			</trkpt>
			<trkpt lat="54.945277324" lon="82.886770207">
				<time>2026-09-05T09:31:45Z</time>
				<ele>135.533</ele>
			</trkpt>
			<trkpt lat="54.945277324" lon="82.886770207">
				<time>2026-09-05T09:31:50Z</time>
				<ele>135.533</ele>
			</trkpt>
			<trkpt lat="54.945277324" lon="82.886770207">
				<time>2026-09-05T09:31:55Z</time>
				<ele>135.533</ele>
			</trkpt>
			<trkpt lat="54.945277324" lon="82.886770207">
				<time>2026-09-05T09:32:00Z</time>
				<ele>135.533</ele>
			</trkpt>
			<trkpt lat="54.945277324" lon="82.886770207">
				<time>2026-09-05T09:32:05Z</time>
				<ele>135.533</ele>
			</trkpt>
			<trkpt lat="54.945277324" lon="82.886770207">
				<time>2026-09-05T09:32:10Z</time>
				<ele>135.533</ele>
			</trkpt>
			<trkpt lat="54.947045247" lon="82.886952435">
				<time>2026-09-05T09:32:17Z</time>
				<ele>129.314</ele>
			</trkpt>
			<trkpt lat="54.947045247" lon="82.886952435">
				<time>2026-09-05T09:32:22Z</time>
				<ele>129.314</ele>
			</trkpt>
			<trkpt lat="54.947045247" lon="82.886952435">
				<time>2026-09-05T09:32:27Z</time>
				<ele>129.314</ele>
			</trkpt>
			<trkpt lat="54.947045247" lon="82.886952435">
				<time>2026-09-05T09:32:32Z</time>
				<ele>129.314</ele>
			</trkpt>
			<trkpt lat="54.947045247" lon="82.886952435">
				<time>2026-09-05T09:32:37Z</time>
				<ele>129.314</ele>
			</trkpt>
			<trkpt lat="54.947045247" lon="82.886952435">
				<time>2026-09-05T09:32:42Z</time>
				<ele>129.314</ele>
			</trkpt>
			<trkpt lat="54.947045247" lon="82.886952435">
				<time>2026-09-05T09:32:47Z</time>
				<ele>129.314</ele>
			</trkpt>
			<trkpt lat="54.947045247" lon="82.886952435">
				<time>2026-09-05T09:32:52Z</time>
				<ele>129.314</ele>
			</trkpt>
			<trkpt lat="54.947045247" lon="82.886952435">
				<time>2026-09-05T09:32:57Z</time>
				<ele>129.314</ele>
			</trkpt>
			<trkpt lat="54.947045247" lon="82.886952435">
				<time>2026-09-05T09:33:02Z</time>
				<ele>129.314</ele>
			</trkpt>
			<trkpt lat="54.947045247" lon="82.886952435">
				<time>2026-09-05T09:33:07Z</time>
				<ele>129.314</ele>
			</trkpt>
			<trkpt lat="54.947045247" lon="82.886952435">
				<time>2026-09-05T09:33:12Z</time>
				<ele>129.314</ele>
			</trkpt>
			<trkpt lat="54.947045247" lon="82.886952435">
				<time>2026-09-05T09:33:17Z</time>
				<ele>129.314</ele>
			</trkpt>
			<trkpt lat="54.946864974" lon="82.889192487">
				<time>2026-09-05T09:33:26Z</time>
				<ele>131.607</ele>
			</trkpt>
			<trkpt lat="54.946864974" lon="82.889192487">
				<time>2026-09-05T09:33:31Z</time>
				<ele>131.607</ele>
			</trkpt>
			<trkpt lat="54.946864974" lon="82.889192487">
				<time>2026-09-05T09:33:36Z</time>
				<ele>131.607</ele>
			</trkpt>
			<trkpt lat="54.946864974" lon="82.889192487">
				<time>2026-09-05T09:33:41Z</time>
				<ele>131.607</ele>
			</trkpt>
			<trkpt lat="54.946864974" lon="82.889192487">
				<time>2026-09-05T09:33:46Z</time>
				<ele>131.607</ele>
			</trkpt>
			<trkpt lat="54.946864974" lon="82.889192487">
				<time>2026-09-05T09:33:51Z</time>
				<ele>131.607</ele>
			</trkpt>
			<trkpt lat="54.946864974" lon="82.889192487">
				<time>2026-09-05T09:33:56Z</time>
				<ele>131.607</ele>
			</trkpt>
			<trkpt lat="54.946864974" lon="82.889192487">
				<time>2026-09-05T09:34:01Z</time>
				<ele>131.607</ele>
			</trkpt>
			<trkpt lat="54.946864974" lon="82.889192487">
				<time>2026-09-05T09:34:06Z</time>
				<ele>131.607</ele>
			</trkpt>
			<trkpt lat="54.946864974" lon="82.889192487">
				<time>2026-09-05T09:34:11Z</time>
				<ele>131.607</ele>
			</trkpt>
			<trkpt lat="54.946864974" lon="82.889192487">
				<time>2026-09-05T09:34:16Z</time>
				<ele>131.607</ele>
			</trkpt>
			<trkpt lat="54.946864974" lon="82.889192487">
				<time>2026-09-05T09:34:21Z</time>
				<ele>131.607</ele>
			</trkpt>
		</trkseg>
	</trk>
</gpx>
